createdAt,value
2017-09-19T00:00:45.081Z,17.05
2017-09-19T00:01:47.561Z,17.48
2017-09-19T00:02:50.118Z,15.52
2017-09-19T00:03:52.599Z,19.98
2017-09-19T00:04:55.088Z,16.95
2017-09-19T00:05:57.538Z,18.10
2017-09-19T00:07:00.054Z,16.33
2017-09-19T00:08:03.342Z,20.08
2017-09-19T00:09:05.827Z,18.52
2017-09-19T00:10:09.085Z,17.92
2017-09-19T00:11:12.464Z,16.10
2017-09-19T00:12:15.013Z,16.35
2017-09-19T00:13:17.478Z,15.75
2017-09-19T00:14:20.298Z,20.60
2017-09-19T00:15:23.552Z,17.08
2017-09-19T00:16:26.060Z,16.65
2017-09-19T00:17:29.369Z,15.70
2017-09-19T00:18:31.837Z,19.25
2017-09-19T00:19:35.071Z,18.62
2017-09-19T00:20:38.349Z,16.65
2017-09-19T00:21:40.935Z,17.85
2017-09-19T00:22:44.442Z,16.02
2017-09-19T00:23:48.648Z,17.05
2017-09-19T00:24:52.311Z,16.00
2017-09-19T00:25:55.530Z,15.48
2017-09-19T00:26:58.000Z,15.93
2017-09-19T00:28:00.543Z,18.70
2017-09-19T00:29:02.994Z,16.85
2017-09-19T00:30:05.491Z,17.48
2017-09-19T00:31:08.097Z,18.42
2017-09-19T00:32:10.663Z,17.00
2017-09-19T00:33:13.190Z,15.82
2017-09-19T00:34:15.730Z,17.52
2017-09-19T00:35:18.261Z,17.10
2017-09-19T00:36:20.926Z,18.02
2017-09-19T00:37:23.483Z,17.05
2017-09-19T00:38:26.231Z,21.00
2017-09-19T00:39:28.719Z,17.48
2017-09-19T00:40:31.183Z,17.60
2017-09-19T00:41:33.642Z,16.67
2017-09-19T00:42:36.902Z,17.90
2017-09-19T00:43:39.466Z,18.23
2017-09-19T00:44:41.933Z,16.62
2017-09-19T00:45:44.395Z,16.48
2017-09-19T00:46:47.003Z,18.85
2017-09-19T00:47:49.510Z,16.23
2017-09-19T00:48:52.767Z,17.73
2017-09-19T00:49:55.987Z,19.40
2017-09-19T00:50:58.456Z,16.83
2017-09-19T00:52:00.924Z,16.27
2017-09-19T00:53:03.493Z,23.05
2017-09-19T00:54:06.031Z,16.50
2017-09-19T00:55:08.514Z,14.65
2017-09-19T00:56:11.790Z,15.13
2017-09-19T00:57:14.269Z,13.90
2017-09-19T00:58:16.730Z,17.55
2017-09-19T00:59:19.258Z,16.60
2017-09-19T01:00:21.805Z,15.02
2017-09-19T01:01:24.269Z,15.23
2017-09-19T01:02:26.733Z,15.45
2017-09-19T01:03:29.222Z,18.75
2017-09-19T01:04:31.686Z,18.15
2017-09-19T01:05:34.182Z,18.45
2017-09-19T01:06:36.635Z,16.45
2017-09-19T01:07:39.106Z,18.48
2017-09-19T01:08:41.602Z,16.52
2017-09-19T01:09:44.071Z,20.25
2017-09-19T01:10:47.170Z,15.75
2017-09-19T01:11:49.663Z,15.45
2017-09-19T01:12:52.895Z,19.55
2017-09-19T01:13:56.131Z,18.80
2017-09-19T01:14:59.518Z,18.80
2017-09-19T01:16:01.995Z,19.60
2017-09-19T01:17:04.455Z,17.33
2017-09-19T01:18:07.008Z,16.55
2017-09-19T01:19:09.463Z,18.33
2017-09-19T01:20:11.926Z,18.73
2017-09-19T01:21:14.408Z,18.85
2017-09-19T01:22:16.864Z,17.33
2017-09-19T01:23:20.210Z,18.65
2017-09-19T01:24:23.436Z,18.00
2017-09-19T01:25:25.903Z,21.55
2017-09-19T01:26:28.432Z,21.10
2017-09-19T01:27:31.183Z,22.70
2017-09-19T01:28:33.681Z,21.33
2017-09-19T01:29:36.198Z,19.08
2017-09-19T01:30:38.721Z,17.55
2017-09-19T01:31:41.177Z,19.90
2017-09-19T01:32:43.633Z,21.30
2017-09-19T01:33:46.097Z,18.77
2017-09-19T01:34:48.584Z,17.40
2017-09-19T01:35:51.051Z,19.17
2017-09-19T01:36:53.878Z,19.42
2017-09-19T01:37:56.407Z,19.00
2017-09-19T01:38:58.888Z,16.87
2017-09-19T01:40:02.156Z,15.43
2017-09-19T01:41:05.521Z,19.08
2017-09-19T01:42:08.020Z,17.70
2017-09-19T01:43:11.276Z,17.70
2017-09-19T01:44:13.923Z,17.73
2017-09-19T01:45:16.417Z,16.45
2017-09-19T01:46:19.659Z,16.15
2017-09-19T01:47:22.955Z,17.50
2017-09-19T01:48:25.434Z,18.60
2017-09-19T01:49:28.042Z,19.85
2017-09-19T01:50:30.498Z,17.62
2017-09-19T01:51:33.076Z,16.25
2017-09-19T01:52:35.551Z,20.95
2017-09-19T01:53:38.074Z,19.50
2017-09-19T01:54:41.358Z,16.98
2017-09-19T01:55:43.823Z,17.80
2017-09-19T01:56:47.065Z,16.83
2017-09-19T01:57:49.519Z,25.12
2017-09-19T01:58:52.018Z,18.73
2017-09-19T01:59:55.261Z,17.48
2017-09-19T02:00:58.491Z,16.10
2017-09-19T02:02:01.714Z,16.75
2017-09-19T02:03:04.299Z,18.42
2017-09-19T02:04:06.781Z,18.08
2017-09-19T02:05:09.286Z,16.62
2017-09-19T02:06:11.774Z,17.17
2017-09-19T02:07:14.241Z,18.58
2017-09-19T02:08:16.761Z,15.90
2017-09-19T02:09:19.236Z,17.15
2017-09-19T02:10:22.462Z,17.45
2017-09-19T02:11:25.723Z,17.45
2017-09-19T02:12:28.187Z,17.17
2017-09-19T02:13:30.651Z,18.25
2017-09-19T02:14:33.887Z,18.48
2017-09-19T02:15:36.649Z,17.87
2017-09-19T02:16:39.164Z,19.30
2017-09-19T02:17:42.409Z,19.15
2017-09-19T02:18:45.655Z,17.33
2017-09-19T02:19:48.130Z,18.05
2017-09-19T02:20:50.755Z,17.35
2017-09-19T02:21:53.254Z,19.70
2017-09-19T02:22:55.744Z,18.90
2017-09-19T02:23:59.009Z,19.12
2017-09-19T02:25:01.462Z,17.15
2017-09-19T02:26:03.955Z,18.42
2017-09-19T02:27:06.483Z,20.30
2017-09-19T02:28:08.947Z,22.40
2017-09-19T02:29:11.411Z,20.67
2017-09-19T02:30:14.630Z,18.83
2017-09-19T02:31:17.116Z,18.62
2017-09-19T02:32:19.647Z,20.30
2017-09-19T02:33:22.145Z,22.58
2017-09-19T02:34:24.972Z,19.85
2017-09-19T02:35:28.307Z,16.92
2017-09-19T02:36:31.537Z,16.52
2017-09-19T02:37:34.035Z,20.48
2017-09-19T02:38:36.493Z,20.12
2017-09-19T02:39:39.036Z,22.13
2017-09-19T02:40:42.281Z,18.87
2017-09-19T02:41:45.500Z,19.48
2017-09-19T02:42:48.684Z,21.00
2017-09-19T02:43:51.199Z,21.27
2017-09-19T02:44:53.691Z,22.15
2017-09-19T02:45:56.225Z,20.05
2017-09-19T02:46:59.438Z,21.00
2017-09-19T02:48:01.930Z,20.90
2017-09-19T02:49:04.433Z,20.15
2017-09-19T02:50:07.720Z,19.52
2017-09-19T02:51:10.271Z,19.05
2017-09-19T02:52:13.487Z,18.85
2017-09-19T02:53:15.946Z,18.67
2017-09-19T02:54:19.222Z,17.37
2017-09-19T02:55:21.794Z,18.48
2017-09-19T02:56:24.287Z,17.37
2017-09-19T02:57:26.792Z,21.90
2017-09-19T02:58:29.322Z,17.98
2017-09-19T02:59:31.825Z,19.65
2017-09-19T03:00:34.405Z,17.35
2017-09-19T03:01:36.952Z,21.20
2017-09-19T03:02:39.409Z,18.77
2017-09-19T03:03:42.652Z,15.25
2017-09-19T03:04:45.916Z,17.75
2017-09-19T03:05:48.371Z,20.98
2017-09-19T03:06:50.927Z,18.80
2017-09-19T03:07:54.211Z,16.02
2017-09-19T03:08:56.685Z,23.40
2017-09-19T03:10:00.725Z,17.27
2017-09-19T03:11:03.233Z,19.42
2017-09-19T03:12:05.746Z,18.33
2017-09-19T03:13:08.211Z,20.95
2017-09-19T03:14:10.690Z,25.05
2017-09-19T03:15:13.222Z,18.15
2017-09-19T03:16:15.727Z,21.77
2017-09-19T03:17:18.967Z,18.87
2017-09-19T03:18:22.221Z,17.25
2017-09-19T03:19:25.438Z,22.42
2017-09-19T03:20:28.824Z,22.27
2017-09-19T03:21:31.329Z,18.45
2017-09-19T03:22:34.567Z,17.80
2017-09-19T03:23:37.811Z,18.15
2017-09-19T03:24:41.044Z,18.15
2017-09-19T03:25:44.306Z,19.08
2017-09-19T03:26:47.535Z,21.50
2017-09-19T03:27:50.774Z,21.33
2017-09-19T03:28:54.037Z,19.80
2017-09-19T03:29:56.513Z,21.50
2017-09-19T03:30:58.984Z,19.87
2017-09-19T03:32:01.430Z,22.85
2017-09-19T03:33:03.925Z,19.40
2017-09-19T03:34:07.162Z,18.45
2017-09-19T03:35:10.397Z,22.08
2017-09-19T03:36:13.703Z,25.00
2017-09-19T03:37:16.292Z,19.17
2017-09-19T03:38:18.875Z,23.50
2017-09-19T03:39:21.445Z,21.05
2017-09-19T03:40:23.918Z,20.92
2017-09-19T03:41:26.390Z,22.40
2017-09-19T03:42:29.515Z,19.70
2017-09-19T03:43:32.813Z,21.77
2017-09-19T03:44:35.311Z,22.25
2017-09-19T03:45:37.778Z,20.88
2017-09-19T03:46:40.243Z,18.80
2017-09-19T03:47:42.760Z,22.70
2017-09-19T03:48:46.011Z,19.90
2017-09-19T03:49:48.512Z,20.20
2017-09-19T03:50:51.163Z,19.27
2017-09-19T03:51:54.414Z,19.30
2017-09-19T03:52:56.961Z,19.30
2017-09-19T03:54:00.051Z,17.42
2017-09-19T03:55:03.349Z,19.90
2017-09-19T03:56:05.854Z,20.27
2017-09-19T03:57:08.319Z,18.25
2017-09-19T03:58:10.860Z,35.30
2017-09-19T03:59:13.339Z,22.10
2017-09-19T04:00:15.848Z,19.02
2017-09-19T04:01:18.340Z,19.83
2017-09-19T04:02:22.127Z,20.27
2017-09-19T04:03:24.674Z,20.98
2017-09-19T04:04:27.157Z,20.90
2017-09-19T04:05:30.467Z,22.67
2017-09-19T04:06:33.109Z,20.50
2017-09-19T04:07:35.577Z,19.27
2017-09-19T04:08:38.057Z,20.25
2017-09-19T04:09:41.281Z,21.83
2017-09-19T04:10:43.759Z,22.52
2017-09-19T04:11:47.042Z,21.65
2017-09-19T04:12:49.499Z,19.80
2017-09-19T04:13:51.966Z,21.37
2017-09-19T04:14:54.737Z,20.33
2017-09-19T04:15:57.229Z,19.45
2017-09-19T04:16:59.727Z,25.30
2017-09-19T04:18:03.086Z,21.35
2017-09-19T04:19:05.597Z,20.95
2017-09-19T04:20:08.442Z,23.20
2017-09-19T04:21:11.807Z,22.08
2017-09-19T04:22:14.416Z,21.73
2017-09-19T04:23:16.914Z,21.15
2017-09-19T04:24:19.394Z,24.60
2017-09-19T04:25:21.858Z,21.50
2017-09-19T04:26:24.343Z,23.25
2017-09-19T04:27:26.822Z,20.73
2017-09-19T04:28:30.042Z,21.77
2017-09-19T04:29:32.514Z,22.80
2017-09-19T04:30:34.981Z,22.02
2017-09-19T04:31:37.438Z,21.20
2017-09-19T04:32:40.722Z,27.05
2017-09-19T04:33:43.192Z,21.80
2017-09-19T04:34:45.674Z,21.67
2017-09-19T04:35:48.140Z,23.55
2017-09-19T04:36:50.638Z,24.67
2017-09-19T04:37:53.112Z,22.25
2017-09-19T04:38:56.334Z,24.83
2017-09-19T04:39:58.789Z,25.95
2017-09-19T04:41:01.264Z,24.35
2017-09-19T04:42:04.073Z,20.90
2017-09-19T04:43:06.598Z,24.73
2017-09-19T04:44:09.057Z,23.42
2017-09-19T04:45:12.319Z,29.58
2017-09-19T04:46:15.562Z,22.77
2017-09-19T04:47:18.787Z,24.65
2017-09-19T04:48:21.370Z,25.10
2017-09-19T04:49:23.897Z,25.27
2017-09-19T04:50:26.406Z,28.40
2017-09-19T04:51:28.882Z,20.20
2017-09-19T04:52:31.356Z,24.80
2017-09-19T04:53:33.854Z,25.00
2017-09-19T04:54:37.319Z,24.98
2017-09-19T04:55:41.063Z,30.92
2017-09-19T04:56:44.310Z,26.73
2017-09-19T04:57:47.558Z,24.80
2017-09-19T04:58:50.903Z,27.87
2017-09-19T04:59:53.418Z,24.45
2017-09-19T05:00:56.679Z,22.25
2017-09-19T05:01:59.147Z,27.98
2017-09-19T05:03:02.338Z,21.98
2017-09-19T05:04:04.870Z,29.12
2017-09-19T05:05:07.335Z,21.65
2017-09-19T05:06:09.786Z,22.48
2017-09-19T05:07:12.284Z,23.48
2017-09-19T05:08:14.781Z,23.25
2017-09-19T05:09:17.298Z,24.87
2017-09-19T05:10:19.773Z,23.23
2017-09-19T05:11:22.242Z,26.45
2017-09-19T05:12:24.765Z,25.42
2017-09-19T05:13:27.230Z,27.67
2017-09-19T05:14:29.767Z,23.15
2017-09-19T05:15:32.230Z,23.10
2017-09-19T05:16:35.464Z,25.12
2017-09-19T05:17:38.724Z,25.40
2017-09-19T05:18:41.988Z,23.45
2017-09-19T05:19:45.318Z,26.60
2017-09-19T05:20:47.802Z,28.17
2017-09-19T05:21:50.266Z,23.40
2017-09-19T05:22:52.793Z,21.80
2017-09-19T05:23:55.332Z,23.67
2017-09-19T05:24:57.939Z,21.70
2017-09-19T05:26:01.202Z,24.02
2017-09-19T05:27:03.676Z,22.42
2017-09-19T05:28:06.945Z,22.62
2017-09-19T05:29:10.319Z,24.25
2017-09-19T05:30:12.818Z,22.50
2017-09-19T05:31:16.053Z,23.67
2017-09-19T05:32:19.306Z,23.50
2017-09-19T05:33:21.820Z,22.42
2017-09-19T05:34:25.054Z,29.10
2017-09-19T05:35:27.505Z,24.90
2017-09-19T05:36:30.332Z,25.08
2017-09-19T05:37:32.885Z,27.27
2017-09-19T05:38:35.422Z,22.20
2017-09-19T05:39:37.890Z,29.35
2017-09-19T05:40:41.340Z,24.92
2017-09-19T05:41:44.601Z,26.10
2017-09-19T05:42:47.919Z,24.40
2017-09-19T05:43:51.163Z,26.73
2017-09-19T05:44:54.570Z,30.23
2017-09-19T05:45:57.086Z,26.45
2017-09-19T05:48:37.808Z,28.25
2017-09-19T05:49:41.027Z,26.85
2017-09-19T05:50:43.597Z,27.92
2017-09-19T05:51:46.097Z,35.72
2017-09-19T05:52:48.546Z,34.10
2017-09-19T05:53:51.027Z,33.70
2017-09-19T05:54:53.513Z,30.80
2017-09-19T05:55:55.994Z,28.23
2017-09-19T05:56:59.886Z,35.97
2017-09-19T05:58:02.581Z,33.90
2017-09-19T05:59:05.851Z,31.42
2017-09-19T06:00:08.319Z,29.55
2017-09-19T06:01:10.782Z,29.85
2017-09-19T06:02:14.148Z,31.77
2017-09-19T06:03:16.626Z,29.87
2017-09-19T06:04:19.110Z,28.33
2017-09-19T06:05:21.574Z,27.67
2017-09-19T06:06:24.025Z,31.12
2017-09-19T06:07:27.306Z,28.83
2017-09-19T06:08:29.762Z,27.15
2017-09-19T06:09:33.974Z,27.37
2017-09-19T06:10:36.493Z,30.92
2017-09-19T06:11:39.728Z,26.90
2017-09-19T06:12:42.990Z,25.42
2017-09-19T06:13:45.458Z,27.23
2017-09-19T06:14:47.935Z,28.92
2017-09-19T06:15:50.403Z,31.55
2017-09-19T06:16:52.885Z,29.67
2017-09-19T06:17:55.366Z,30.88
2017-09-19T06:18:57.923Z,28.38
2017-09-19T06:20:01.375Z,29.60
2017-09-19T06:21:03.853Z,27.73
2017-09-19T06:22:06.315Z,32.35
2017-09-19T06:23:08.825Z,26.67
2017-09-19T06:24:11.300Z,23.45
2017-09-19T06:25:13.753Z,27.92
2017-09-19T06:26:16.212Z,25.95
2017-09-19T06:27:19.495Z,23.60
2017-09-19T06:28:22.001Z,23.17
2017-09-19T06:29:24.517Z,37.58
2017-09-19T06:30:27.767Z,21.33
2017-09-19T06:31:30.241Z,23.45
2017-09-19T06:32:32.760Z,25.08
2017-09-19T06:33:35.223Z,21.27
2017-09-19T06:34:38.447Z,31.17
2017-09-19T06:35:41.015Z,23.58
2017-09-19T06:36:43.530Z,25.30
2017-09-19T06:37:46.072Z,17.87
2017-09-19T06:38:48.541Z,21.15
2017-09-19T06:39:51.025Z,25.73
2017-09-19T06:40:53.544Z,19.65
2017-09-19T06:41:56.037Z,20.15
2017-09-19T06:42:59.295Z,25.20
2017-09-19T06:44:02.545Z,18.65
2017-09-19T06:45:05.785Z,20.33
2017-09-19T06:46:08.310Z,19.40
2017-09-19T06:47:10.838Z,21.65
2017-09-19T06:48:13.334Z,22.73
2017-09-19T06:49:16.021Z,19.90
2017-09-19T06:50:18.510Z,19.12
2017-09-19T06:51:21.754Z,19.23
2017-09-19T06:52:24.983Z,18.17
2017-09-19T06:53:28.285Z,20.02
2017-09-19T06:54:30.741Z,19.33
2017-09-19T06:55:33.223Z,18.37
2017-09-19T06:56:35.697Z,19.48
2017-09-19T06:57:38.242Z,15.70
2017-09-19T06:58:40.798Z,21.12
2017-09-19T06:59:43.304Z,18.02
2017-09-19T07:00:45.772Z,17.10
2017-09-19T07:01:48.255Z,17.65
2017-09-19T07:02:50.830Z,16.98
2017-09-19T07:03:53.361Z,18.30
2017-09-19T07:04:55.814Z,17.33
2017-09-19T07:05:59.042Z,15.85
2017-09-19T07:07:02.346Z,15.50
2017-09-19T07:08:04.806Z,16.85
2017-09-19T07:09:07.308Z,19.87
2017-09-19T07:10:09.790Z,14.80
2017-09-19T07:11:12.262Z,17.12
2017-09-19T07:12:14.732Z,18.12
2017-09-19T07:13:17.972Z,19.75
2017-09-19T07:14:21.237Z,18.48
2017-09-19T07:15:23.700Z,15.77
2017-09-19T07:16:26.263Z,18.77
2017-09-19T07:17:29.495Z,16.92
2017-09-19T07:18:32.748Z,15.30
2017-09-19T07:19:36.017Z,16.52
2017-09-19T07:20:38.478Z,23.50
2017-09-19T07:21:40.984Z,15.55
2017-09-19T07:22:43.481Z,16.70
2017-09-19T07:23:45.943Z,16.80
2017-09-19T07:24:48.446Z,16.25
2017-09-19T07:25:50.949Z,16.87
2017-09-19T07:26:53.838Z,19.23
2017-09-19T07:27:56.442Z,15.05
2017-09-19T07:28:58.932Z,21.27
2017-09-19T07:30:01.417Z,15.23
2017-09-19T07:31:04.018Z,22.02
2017-09-19T07:32:06.590Z,14.80
2017-09-19T07:33:09.149Z,16.90
2017-09-19T07:34:11.646Z,16.83
2017-09-19T07:35:14.918Z,17.87
2017-09-19T07:36:17.383Z,15.48
2017-09-19T07:37:19.849Z,14.75
2017-09-19T07:38:23.094Z,15.45
2017-09-19T07:39:26.446Z,15.73
2017-09-19T07:40:28.979Z,17.58
2017-09-19T07:41:31.445Z,13.98
2017-09-19T07:42:33.908Z,14.80
2017-09-19T07:43:37.174Z,16.55
2017-09-19T07:44:39.685Z,13.88
2017-09-19T07:45:42.921Z,14.38
2017-09-19T07:46:46.176Z,15.15
2017-09-19T07:47:48.650Z,16.15
2017-09-19T07:48:51.127Z,15.77
2017-09-19T07:49:53.660Z,20.95
2017-09-19T07:50:56.125Z,17.23
2017-09-19T07:52:00.060Z,14.30
2017-09-19T07:53:03.619Z,13.62
2017-09-19T07:54:06.092Z,12.75
2017-09-19T07:55:09.370Z,17.15
2017-09-19T07:56:11.847Z,13.80
2017-09-19T07:57:14.309Z,14.75
2017-09-19T07:58:16.828Z,14.73
2017-09-19T07:59:19.298Z,12.73
2017-09-19T08:00:21.763Z,13.30
2017-09-19T08:01:25.002Z,12.57
2017-09-19T08:02:28.270Z,15.73
2017-09-19T08:03:30.758Z,12.73
2017-09-19T08:04:34.026Z,12.75
2017-09-19T08:05:36.604Z,12.18
2017-09-19T08:06:39.049Z,11.98
2017-09-19T08:07:41.617Z,15.48
2017-09-19T08:08:44.091Z,13.38
2017-09-19T08:09:46.583Z,12.13
2017-09-19T08:10:49.068Z,14.87
2017-09-19T08:11:52.416Z,12.30
2017-09-19T08:12:55.648Z,14.00
2017-09-19T08:13:58.938Z,10.88
2017-09-19T08:15:01.439Z,12.55
2017-09-19T08:16:03.929Z,12.85
2017-09-19T08:17:06.435Z,12.77
2017-09-19T08:18:08.885Z,13.68
2017-09-19T08:19:11.360Z,17.67
2017-09-19T08:20:13.817Z,9.82
2017-09-19T08:21:16.290Z,12.70
2017-09-19T08:22:18.818Z,15.32
2017-09-19T08:23:21.286Z,12.93
2017-09-19T08:24:23.762Z,12.43
2017-09-19T08:25:27.032Z,14.75
2017-09-19T08:26:29.523Z,10.90
2017-09-19T08:27:32.823Z,12.75
2017-09-19T08:28:35.270Z,10.48
2017-09-19T08:29:38.531Z,9.60
2017-09-19T08:30:41.801Z,11.82
2017-09-19T08:31:44.258Z,11.50
2017-09-19T08:32:46.735Z,12.13
2017-09-19T08:33:49.457Z,13.00
2017-09-19T08:34:52.807Z,12.05
2017-09-19T08:35:56.056Z,10.68
2017-09-19T08:36:58.533Z,11.10
2017-09-19T08:38:00.985Z,10.82
2017-09-19T08:39:04.213Z,11.02
2017-09-19T08:40:07.473Z,12.18
2017-09-19T08:41:10.735Z,14.07
2017-09-19T08:42:13.197Z,13.15
2017-09-19T08:43:15.669Z,17.95
2017-09-19T08:44:18.205Z,15.23
2017-09-19T08:45:20.682Z,12.20
2017-09-19T08:46:23.158Z,15.10
2017-09-19T08:47:25.627Z,14.30
2017-09-19T08:48:28.098Z,12.52
2017-09-19T08:49:30.642Z,14.35
2017-09-19T08:50:33.146Z,14.68
2017-09-19T08:51:35.641Z,16.52
2017-09-19T08:52:38.108Z,15.32
2017-09-19T08:53:40.629Z,15.30
2017-09-19T08:54:43.953Z,11.98
2017-09-19T08:55:47.177Z,15.55
2017-09-19T08:56:49.767Z,21.67
2017-09-19T08:57:52.228Z,17.98
2017-09-19T08:58:54.793Z,15.10
2017-09-19T08:59:57.322Z,15.40
2017-09-19T09:00:59.773Z,16.85
2017-09-19T09:02:02.263Z,14.43
2017-09-19T09:03:04.806Z,17.58
2017-09-19T09:04:07.309Z,14.45
2017-09-19T09:05:11.366Z,11.05
2017-09-19T09:06:14.598Z,10.73
2017-09-19T09:07:17.830Z,9.93
2017-09-19T09:08:20.309Z,9.52
2017-09-19T09:09:22.877Z,11.23
2017-09-19T09:10:26.114Z,9.95
2017-09-19T09:11:28.688Z,12.30
2017-09-19T09:12:31.158Z,11.68
2017-09-19T09:13:33.648Z,12.73
2017-09-19T09:14:36.116Z,14.55
2017-09-19T09:15:38.584Z,10.57
2017-09-19T09:16:41.108Z,10.25
2017-09-19T09:17:43.558Z,9.13
2017-09-19T09:18:46.055Z,12.05
2017-09-19T09:19:49.322Z,10.55
2017-09-19T09:20:52.228Z,9.43
2017-09-19T09:21:55.566Z,10.25
2017-09-19T09:22:58.797Z,11.18
2017-09-19T09:24:02.047Z,11.40
2017-09-19T09:25:05.297Z,7.53
2017-09-19T09:26:08.545Z,10.68
2017-09-19T09:27:11.794Z,10.18
2017-09-19T09:28:14.321Z,10.68
2017-09-19T09:29:16.869Z,10.10
2017-09-19T09:30:19.356Z,8.18
2017-09-19T09:31:22.582Z,8.05
2017-09-19T09:32:25.033Z,10.82
2017-09-19T09:33:27.509Z,8.05
2017-09-19T09:34:30.109Z,10.50
2017-09-19T09:35:32.681Z,9.20
2017-09-19T09:36:35.142Z,10.10
2017-09-19T09:37:37.633Z,9.45
2017-09-19T09:38:40.190Z,10.82
2017-09-19T09:39:42.718Z,11.00
2017-09-19T09:40:45.609Z,10.40
2017-09-19T09:41:48.226Z,9.02
2017-09-19T09:42:50.678Z,10.07
2017-09-19T09:43:53.981Z,13.23
2017-09-19T09:44:56.474Z,10.20
2017-09-19T09:45:58.976Z,8.45
2017-09-19T09:47:02.209Z,11.45
2017-09-19T09:48:04.781Z,12.88
2017-09-19T09:49:07.364Z,10.77
2017-09-19T09:50:09.831Z,9.98
2017-09-19T09:51:12.319Z,9.40
2017-09-19T09:52:15.581Z,9.57
2017-09-19T09:53:18.804Z,9.30
2017-09-19T09:54:22.035Z,9.23
2017-09-19T09:55:26.036Z,7.28
2017-09-19T09:56:28.495Z,8.15
2017-09-19T09:57:31.156Z,6.35
2017-09-19T09:58:33.706Z,8.88
2017-09-19T09:59:36.171Z,10.93
2017-09-19T10:00:38.640Z,9.20
2017-09-19T10:01:41.867Z,8.20
2017-09-19T10:02:44.369Z,10.88
2017-09-19T10:03:46.833Z,8.55
2017-09-19T10:04:50.050Z,8.18
2017-09-19T10:05:52.548Z,11.70
2017-09-19T10:06:55.032Z,7.03
2017-09-19T10:07:58.434Z,8.88
2017-09-19T10:09:00.888Z,7.55
2017-09-19T10:10:03.755Z,8.02
2017-09-19T10:11:06.243Z,9.48
2017-09-19T10:12:08.802Z,7.12
2017-09-19T10:13:11.327Z,8.45
2017-09-19T10:14:13.796Z,8.75
2017-09-19T10:15:16.256Z,7.07
2017-09-19T10:16:18.698Z,6.72
2017-09-19T10:17:21.164Z,6.95
2017-09-19T10:18:23.653Z,6.50
2017-09-19T10:19:26.410Z,7.55
2017-09-19T10:20:28.874Z,7.82
2017-09-19T10:21:31.889Z,8.07
2017-09-19T10:22:34.355Z,8.90
2017-09-19T10:23:37.653Z,8.52
2017-09-19T10:24:40.138Z,8.73
2017-09-19T10:25:42.687Z,10.35
2017-09-19T10:26:45.202Z,10.20
2017-09-19T10:27:48.273Z,8.02
2017-09-19T10:28:50.748Z,8.93
2017-09-19T10:29:53.234Z,9.85
2017-09-19T10:30:55.782Z,9.00
2017-09-19T10:31:59.006Z,31.90
2017-09-19T10:33:01.470Z,11.32
2017-09-19T10:34:03.990Z,9.38
2017-09-19T10:35:06.514Z,11.10
2017-09-19T10:36:08.966Z,13.40
2017-09-19T10:37:11.441Z,11.00
2017-09-19T10:38:14.663Z,11.63
2017-09-19T10:39:17.823Z,9.82
2017-09-19T10:40:20.332Z,10.30
2017-09-19T10:41:23.122Z,8.80
2017-09-19T10:42:25.579Z,8.70
2017-09-19T10:43:28.087Z,11.15
2017-09-19T10:44:30.649Z,9.85
2017-09-19T10:45:33.106Z,10.50
2017-09-19T10:46:36.451Z,10.30
2017-09-19T10:47:38.929Z,10.88
2017-09-19T10:48:41.397Z,10.77
2017-09-19T10:49:43.974Z,8.93
2017-09-19T10:50:46.430Z,8.95
2017-09-19T10:51:49.700Z,9.05
2017-09-19T10:52:52.159Z,7.15
2017-09-19T10:53:54.652Z,7.35
2017-09-19T10:54:57.111Z,7.20
2017-09-19T10:55:59.566Z,8.40
2017-09-19T10:57:02.967Z,9.38
2017-09-19T10:58:05.418Z,7.43
2017-09-19T10:59:07.917Z,7.78
2017-09-19T11:00:10.393Z,6.40
2017-09-19T11:01:12.864Z,9.45
2017-09-19T11:02:15.323Z,6.78
2017-09-19T11:03:17.879Z,7.03
2017-09-19T11:04:21.161Z,7.37
2017-09-19T11:05:23.655Z,6.90
2017-09-19T11:06:26.953Z,8.25
2017-09-19T11:07:29.432Z,9.38
2017-09-19T11:08:31.915Z,8.13
2017-09-19T11:09:34.456Z,9.63
2017-09-19T11:10:37.694Z,9.15
2017-09-19T11:11:40.158Z,11.00
2017-09-19T11:12:42.720Z,10.05
2017-09-19T11:13:45.194Z,8.60
2017-09-19T11:14:47.679Z,7.93
2017-09-19T11:15:50.144Z,8.27
2017-09-19T11:16:53.223Z,6.82
2017-09-19T11:17:55.795Z,6.85
2017-09-19T11:18:59.055Z,5.90
2017-09-19T11:20:01.559Z,5.32
2017-09-19T11:21:04.806Z,5.55
2017-09-19T11:22:08.039Z,4.20
2017-09-19T11:23:11.309Z,4.53
2017-09-19T11:24:13.849Z,3.75
2017-09-19T11:25:16.315Z,3.80
2017-09-19T11:26:18.882Z,6.65
2017-09-19T11:27:21.348Z,4.97
2017-09-19T11:28:24.051Z,3.67
2017-09-19T11:29:26.561Z,2.95
2017-09-19T11:30:29.100Z,2.70
2017-09-19T11:31:31.575Z,3.20
2017-09-19T11:32:34.038Z,5.87
2017-09-19T11:33:36.505Z,2.70
2017-09-19T11:34:38.979Z,6.40
2017-09-19T11:35:42.227Z,6.80
2017-09-19T11:36:44.682Z,4.03
2017-09-19T11:37:47.227Z,3.92
2017-09-19T11:38:49.720Z,4.78
2017-09-19T11:39:52.185Z,3.20
2017-09-19T11:40:54.753Z,3.65
2017-09-19T11:41:57.217Z,3.00
2017-09-19T11:42:59.757Z,4.40
2017-09-19T11:44:02.220Z,3.30
2017-09-19T11:45:05.452Z,10.95
2017-09-19T11:46:07.926Z,2.85
2017-09-19T11:47:10.503Z,3.30
2017-09-19T11:48:13.769Z,3.10
2017-09-19T11:49:16.250Z,3.17
2017-09-19T11:50:18.707Z,4.30
2017-09-19T11:51:22.053Z,3.20
2017-09-19T11:52:24.554Z,2.60
2017-09-19T11:53:27.112Z,4.90
2017-09-19T11:54:30.342Z,2.22
2017-09-19T11:55:33.648Z,2.72
2017-09-19T11:56:36.113Z,3.30
2017-09-19T11:57:39.384Z,2.10
2017-09-19T11:58:41.858Z,2.55
2017-09-19T11:59:44.326Z,2.25
2017-09-19T12:00:46.794Z,2.50
2017-09-19T12:01:50.034Z,2.28
2017-09-19T12:02:52.615Z,2.95
2017-09-19T12:03:55.079Z,2.25
2017-09-19T12:04:57.572Z,2.10
2017-09-19T12:06:00.054Z,1.70
2017-09-19T12:07:02.514Z,2.03
2017-09-19T12:08:05.033Z,4.07
2017-09-19T12:09:08.267Z,1.80
2017-09-19T12:10:11.511Z,3.00
2017-09-19T12:11:14.774Z,1.85
2017-09-19T12:12:17.291Z,2.03
2017-09-19T12:13:19.839Z,7.03
2017-09-19T12:14:22.361Z,3.72
2017-09-19T12:15:24.806Z,3.08
2017-09-19T12:16:27.319Z,2.10
2017-09-19T12:17:29.770Z,2.03
2017-09-19T12:18:32.225Z,2.42
2017-09-19T12:19:35.466Z,3.30
2017-09-19T12:20:38.776Z,2.20
2017-09-19T12:21:41.301Z,4.05
2017-09-19T12:22:43.750Z,6.75
2017-09-19T12:23:47.002Z,3.72
2017-09-19T12:24:50.293Z,2.80
2017-09-19T12:25:52.755Z,3.92
2017-09-19T12:26:55.220Z,2.70
2017-09-19T12:27:57.686Z,4.70
2017-09-19T12:29:00.167Z,4.25
2017-09-19T12:30:02.687Z,6.85
2017-09-19T12:31:05.151Z,4.55
2017-09-19T12:32:07.634Z,4.60
2017-09-19T12:33:10.862Z,6.70
2017-09-19T12:34:14.093Z,2.80
2017-09-19T12:35:16.659Z,2.53
2017-09-19T12:36:19.887Z,3.92
2017-09-19T12:37:22.375Z,3.00
2017-09-19T12:38:24.839Z,3.15
2017-09-19T12:39:27.583Z,3.80
2017-09-19T12:40:30.142Z,2.40
2017-09-19T12:41:32.608Z,3.78
2017-09-19T12:42:35.850Z,2.37
2017-09-19T12:43:39.106Z,3.28
2017-09-19T12:44:41.583Z,2.25
2017-09-19T12:45:44.071Z,2.40
2017-09-19T12:46:46.540Z,3.10
2017-09-19T12:47:49.412Z,3.17
2017-09-19T12:48:51.889Z,6.32
2017-09-19T12:49:54.414Z,2.20
2017-09-19T12:50:56.910Z,2.40
2017-09-19T12:51:59.416Z,2.45
2017-09-19T12:53:01.887Z,3.25
2017-09-19T12:54:04.349Z,2.40
2017-09-19T12:55:07.624Z,2.72
2017-09-19T12:56:10.080Z,2.70
2017-09-19T12:57:13.343Z,4.00
2017-09-19T12:58:17.332Z,3.83
2017-09-19T12:59:19.856Z,3.22
2017-09-19T13:00:23.217Z,2.87
2017-09-19T13:01:26.285Z,2.47
2017-09-19T13:02:28.745Z,2.40
2017-09-19T13:03:31.242Z,2.95
2017-09-19T13:04:33.824Z,2.42
2017-09-19T13:05:36.295Z,2.62
2017-09-19T13:06:38.818Z,4.05
2017-09-19T13:07:41.303Z,3.20
2017-09-19T13:08:43.752Z,2.95
2017-09-19T13:09:46.214Z,3.55
2017-09-19T13:10:48.679Z,2.75
2017-09-19T13:11:51.385Z,3.90
2017-09-19T13:12:54.649Z,2.42
2017-09-19T13:13:57.164Z,3.35
2017-09-19T13:14:59.651Z,2.50
2017-09-19T13:16:02.114Z,4.65
2017-09-19T13:17:04.706Z,2.50
2017-09-19T13:18:07.179Z,3.15
2017-09-19T13:19:09.684Z,2.78
2017-09-19T13:20:12.936Z,2.53
2017-09-19T13:21:15.389Z,2.95
2017-09-19T13:22:17.897Z,2.17
2017-09-19T13:23:20.462Z,2.70
2017-09-19T13:24:22.926Z,8.93
2017-09-19T13:25:26.215Z,4.43
2017-09-19T13:26:28.755Z,3.67
2017-09-19T13:27:31.250Z,2.92
2017-09-19T13:28:33.716Z,2.50
2017-09-19T13:29:36.291Z,3.20
2017-09-19T13:30:38.787Z,2.40
2017-09-19T13:31:53.959Z,6.32
2017-09-19T13:33:08.397Z,3.55
2017-09-19T13:34:11.650Z,2.25
2017-09-19T13:35:14.892Z,2.30
2017-09-19T13:36:18.149Z,3.58
2017-09-19T13:37:21.427Z,4.20